Time;durP1;ratioP1;P1;durP2;ratioP2;P2;SDS_P1;SDS_P2;PMS_P1;PMS_P2;Temp;Humidity;BMP_temperature;BMP_pressure;BME280_temperature;BME280_humidity;BME280_pressure;Samples;Min_cycle;Max_cycle;Signal;HPM_P1;HPM_P2
2021/05/29 00:00:10;;;;;;;18.60;15.27;;;;;;;-144.99;82.09;52419.56;5042111;28;20209;-59
2021/05/29 00:02:39;;;;;;;18.17;15.90;;;;;;;-144.99;82.02;52437.91;5040009;28;21498;-59
2021/05/29 00:05:07;;;;;;;16.53;14.37;;;;;;;-144.99;82.05;52411.41;5042493;28;20233;-59
2021/05/29 00:07:34;;;;;;;17.77;15.37;;;;;;;-144.99;82.13;52452.16;5043090;28;20225;-60
2021/05/29 00:10:01;;;;;;;16.40;14.80;;;;;;;-144.99;82.16;52399.19;5043615;28;20209;-58
2021/05/29 00:12:27;;;;;;;17.10;15.37;;;;;;;-144.99;82.25;52427.72;5040911;28;20691;-58
2021/05/29 00:14:53;;;;;;;18.07;15.07;;;;;;;-144.99;82.07;52399.19;5042889;28;20216;-62
2021/05/29 00:17:22;;;;;;;17.67;15.83;;;;;;;-144.99;82.35;52413.44;5039470;28;20244;-61
2021/05/29 00:19:51;;;;;;;18.40;15.93;;;;;;;-144.99;82.48;52431.78;5040399;28;20237;-60
2021/05/29 00:22:17;;;;;;;15.73;13.60;;;;;;;-144.99;82.54;52423.63;5038450;28;20694;-60
2021/05/29 00:24:44;;;;;;;16.70;12.70;;;;;;;-144.99;82.42;52423.63;5043116;28;20229;-60
2021/05/29 00:27:10;;;;;;;15.97;12.20;;;;;;;-144.99;82.54;52419.56;5038420;28;20229;-60
2021/05/29 00:29:36;;;;;;;12.97;11.17;;;;;;;-144.99;82.53;52427.72;5038812;28;20580;-60
2021/05/29 00:32:03;;;;;;;14.70;12.50;;;;;;;-144.99;82.55;52458.28;5045957;28;20201;-61
2021/05/29 00:34:29;;;;;;;17.67;11.73;;;;;;;-144.99;82.75;52435.88;5045249;28;20210;-62
2021/05/29 00:36:55;;;;;;;15.20;10.57;;;;;;;-144.99;82.79;52415.47;5046202;28;20226;-58
2021/05/29 00:39:21;;;;;;;22.73;13.23;;;;;;;-144.99;82.88;52452.16;5042582;28;20205;-58
2021/05/29 00:41:48;;;;;;;13.43;11.23;;;;;;;-144.99;83.06;52419.56;5046820;28;20297;-61
2021/05/29 00:44:15;;;;;;;14.90;12.80;;;;;;;-144.99;83.16;52401.22;5033339;28;20225;-61
2021/05/29 00:46:41;;;;;;;14.57;12.38;;;;;;;-144.99;83.29;52413.44;4682164;28;10000960;-60
2021/05/29 00:49:07;;;;;;;16.23;14.60;;;;;;;-144.99;83.35;52423.63;5039267;28;20215;-61
2021/05/29 00:51:33;;;;;;;17.03;13.53;;;;;;;-144.99;83.46;52448.09;5038451;28;20213;-61
2021/05/29 00:54:00;;;;;;;24.00;16.70;;;;;;;-144.99;83.59;52401.22;5041286;28;20255;-60
2021/05/29 00:56:26;;;;;;;22.77;16.00;;;;;;;-144.99;83.48;52464.41;5040945;28;20217;-61
2021/05/29 00:58:56;;;;;;;19.23;15.23;;;;;;;-144.99;83.59;52419.56;5036384;28;20222;-60
2021/05/29 01:01:25;;;;;;;16.87;14.93;;;;;;;-144.99;83.79;52456.25;5041178;28;20220;-60
2021/05/29 01:03:51;;;;;;;21.30;17.60;;;;;;;-144.99;83.75;52423.63;5038526;28;20210;-59
2021/05/29 01:06:17;;;;;;;22.07;16.10;;;;;;;-144.99;83.69;52456.25;5043616;28;20202;-60
2021/05/29 01:08:43;;;;;;;18.10;15.77;;;;;;;-144.99;83.62;52395.09;5044596;28;20613;-60
2021/05/29 01:11:10;;;;;;;17.50;15.70;;;;;;;-144.99;83.49;52415.47;5044053;28;20445;-59
2021/05/29 01:13:39;;;;;;;19.23;16.97;;;;;;;-144.99;83.48;52411.41;5042546;28;20233;-61
2021/05/29 01:16:16;;;;;;;23.07;18.17;;;;;;;-144.99;83.64;52444.03;5043271;28;20324;-61
2021/05/29 01:18:42;;;;;;;18.67;14.23;;;;;;;-144.99;83.64;52427.72;5040925;28;20640;-61
2021/05/29 01:21:11;;;;;;;20.03;17.57;;;;;;;-144.99;83.70;52403.25;5042518;28;20197;-60
2021/05/29 01:23:40;;;;;;;20.20;17.40;;;;;;;-144.99;83.77;52423.63;5038369;28;20271;-59
2021/05/29 01:26:07;;;;;;;18.47;16.57;;;;;;;-144.99;83.75;52423.63;5041244;28;20228;-59
2021/05/29 01:28:33;;;;;;;21.43;16.70;;;;;;;-144.99;83.92;52435.88;5043760;28;20231;-61
2021/05/29 01:31:02;;;;;;;19.37;17.37;;;;;;;-144.99;84.02;52403.25;5039027;28;20210;-61
2021/05/29 01:33:30;;;;;;;22.87;16.27;;;;;;;-144.99;83.80;52395.09;5043290;28;20202;-60
2021/05/29 01:35:59;;;;;;;19.13;16.23;;;;;;;-144.99;83.78;52431.78;5041908;28;20280;-60
2021/05/29 01:38:26;;;;;;;21.10;17.10;;;;;;;-144.99;83.81;52444.03;5047292;28;20549;-60
2021/05/29 01:40:53;;;;;;;19.63;15.93;;;;;;;-144.99;83.94;52391.03;5048548;28;20617;-60
2021/05/29 01:43:19;;;;;;;20.93;18.90;;;;;;;-144.99;83.96;52423.63;5045328;28;20248;-60
2021/05/29 01:45:49;;;;;;;22.13;19.63;;;;;;;-144.99;83.98;52425.66;5046978;28;20291;-60
2021/05/29 01:48:18;;;;;;;21.37;18.33;;;;;;;-144.99;83.99;52431.78;5047185;28;20229;-60
2021/05/29 01:50:47;;;;;;;26.40;19.30;;;;;;;-144.99;83.94;52397.13;5044964;28;20289;-61
2021/05/29 01:53:14;;;;;;;20.23;18.17;;;;;;;-144.99;83.80;52391.03;5047390;28;20212;-60
2021/05/29 01:55:44;;;;;;;23.03;20.60;;;;;;;-144.99;83.88;52419.56;5045425;28;20201;-60
2021/05/29 01:58:15;;;;;;;23.37;18.67;;;;;;;-144.99;83.91;52431.78;5045765;28;20233;-61
2021/05/29 02:00:44;;;;;;;19.83;17.83;;;;;;;-144.99;83.89;52476.63;5043570;28;20197;-61
2021/05/29 02:03:11;;;;;;;23.27;17.27;;;;;;;-144.99;83.83;52409.38;5048121;28;20259;-61
2021/05/29 02:05:37;;;;;;;16.63;14.87;;;;;;;-144.99;83.76;52439.94;5047455;28;20284;-61
2021/05/29 02:08:04;;;;;;;16.93;15.07;;;;;;;-144.99;83.76;52456.25;5041736;28;20359;-60
2021/05/29 02:10:35;;;;;;;18.90;17.10;;;;;;;-144.99;83.77;52448.09;5045788;28;20698;-60
2021/05/29 02:13:06;;;;;;;15.43;13.70;;;;;;;-144.99;83.85;52435.88;5042927;28;20332;-60
2021/05/29 02:15:35;;;;;;;15.33;13.17;;;;;;;-144.99;83.92;52423.63;5066964;22;20571;-61
2021/05/29 02:18:04;;;;;;;17.43;14.60;;;;;;;-144.99;83.99;52429.75;5061541;28;20449;-60
2021/05/29 02:20:40;;;;;;;15.90;11.37;;;;;;;-144.99;84.06;52403.25;5065873;28;20201;-61
2021/05/29 02:23:07;;;;;;;20.97;14.57;;;;;;;-144.99;84.09;52374.72;5066575;28;20209;-61
2021/05/29 02:25:33;;;;;;;15.17;12.00;;;;;;;-144.99;84.17;52425.66;5066953;28;20224;-63
2021/05/29 02:28:03;;;;;;;14.57;11.70;;;;;;;-144.99;84.30;52423.63;5060483;28;20228;-57
2021/05/29 02:30:33;;;;;;;13.90;12.10;;;;;;;-144.99;84.17;52460.31;5066310;28;20213;-58
2021/05/29 02:33:02;;;;;;;17.30;12.50;;;;;;;-144.99;84.24;52415.47;5064059;28;20232;-60
2021/05/29 02:35:31;;;;;;;15.93;12.67;;;;;;;-144.99;84.35;52423.63;5062854;28;20205;-59
2021/05/29 02:37:57;;;;;;;14.53;11.87;;;;;;;-144.99;84.27;52439.94;5060002;28;20229;-59
2021/05/29 02:40:23;;;;;;;16.17;14.50;;;;;;;-144.99;84.27;52435.88;5065105;28;20205;-59
2021/05/29 02:42:55;;;;;;;18.37;12.33;;;;;;;-144.99;84.38;52484.78;5060980;28;20236;-58
2021/05/29 02:45:21;;;;;;;16.87;11.67;;;;;;;-144.99;84.43;52437.91;5062566;28;20597;-58
2021/05/29 02:47:51;;;;;;;18.93;14.03;;;;;;;-144.99;84.23;52419.56;5065260;28;20225;-59
2021/05/29 02:50:17;;;;;;;19.60;13.60;;;;;;;-144.99;84.19;52444.03;5061178;28;20201;-59
2021/05/29 02:52:47;;;;;;;16.73;14.13;;;;;;;-144.99;84.15;52413.44;5063536;28;20731;-59
2021/05/29 02:55:22;;;;;;;24.20;15.97;;;;;;;-144.99;84.17;52468.47;5063967;28;20619;-59
2021/05/29 02:57:50;;;;;;;17.07;13.67;;;;;;;-144.99;84.09;52419.56;5061677;28;20239;-60
2021/05/29 03:00:23;;;;;;;17.00;13.87;;;;;;;-144.99;84.12;52415.47;5064817;28;21845;-60
2021/05/29 03:02:49;;;;;;;19.73;16.77;;;;;;;-144.99;84.11;52378.78;5061326;28;20250;-59
2021/05/29 03:05:17;;;;;;;18.10;16.10;;;;;;;-144.99;83.98;52464.41;5066797;28;20233;-60
2021/05/29 03:07:45;;;;;;;22.40;18.93;;;;;;;-144.99;84.17;52380.84;5065535;28;20255;-60
2021/05/29 03:10:15;;;;;;;22.03;11.50;;;;;;;-144.99;84.14;52391.03;5059628;28;20220;-60
2021/05/29 03:12:42;;;;;;;19.10;14.00;;;;;;;-144.99;84.19;52417.53;5064607;28;20212;-60
2021/05/29 03:15:14;;;;;;;15.30;11.27;;;;;;;-144.99;84.14;52411.41;5066009;28;20210;-60
2021/05/29 03:17:40;;;;;;;16.47;12.47;;;;;;;-144.99;84.17;52421.59;5062293;28;20224;-60
2021/05/29 03:20:08;;;;;;;16.53;11.63;;;;;;;-144.99;84.28;52423.63;5063776;28;20729;-61
2021/05/29 03:22:38;;;;;;;25.87;16.07;;;;;;;-144.99;84.30;52456.25;5057990;28;20201;-60
2021/05/29 03:25:09;;;;;;;14.50;12.10;;;;;;;-144.99;84.37;52395.09;5067752;28;20232;-59
2021/05/29 03:27:39;;;;;;;18.67;10.20;;;;;;;-144.99;84.52;52460.31;5064660;28;20298;-59
2021/05/29 03:30:10;;;;;;;16.03;14.30;;;;;;;-144.99;84.69;52433.81;5064320;28;20308;-59
2021/05/29 03:32:39;;;;;;;15.90;10.90;;;;;;;-144.99;84.91;52407.31;5062313;28;20204;-60
2021/05/29 03:35:07;;;;;;;13.70;11.70;;;;;;;-144.99;84.77;52395.09;5060528;28;20196;-59
2021/05/29 03:37:33;;;;;;;13.80;11.30;;;;;;;-144.99;84.86;52423.63;5064780;28;20224;-59
2021/05/29 03:40:06;;;;;;;19.47;15.33;;;;;;;-144.99;84.71;52448.09;5064354;28;20631;-60
2021/05/29 03:42:38;;;;;;;19.60;15.73;;;;;;;-144.99;84.73;52452.16;5063816;28;20209;-60
2021/05/29 03:45:06;;;;;;;24.33;17.20;;;;;;;-144.99;84.77;52458.28;5060103;28;20228;-59
2021/05/29 03:47:35;;;;;;;20.60;14.93;;;;;;;-144.99;84.77;52407.31;5064679;28;20970;-60
2021/05/29 03:50:05;;;;;;;19.23;15.77;;;;;;;-144.99;84.89;52419.56;5064085;28;20205;-59
2021/05/29 03:52:31;;;;;;;19.37;15.57;;;;;;;-144.99;84.96;52378.78;5060657;28;20220;-60
2021/05/29 03:54:57;;;;;;;22.17;13.70;;;;;;;-144.99;85.03;52435.88;5060616;28;20344;-60
2021/05/29 03:57:27;;;;;;;14.33;12.50;;;;;;;-144.99;85.09;52439.94;5060462;28;20251;-61
2021/05/29 03:59:53;;;;;;;17.13;13.67;;;;;;;-144.99;85.14;52421.59;5064777;28;20201;-61
2021/05/29 04:02:19;;;;;;;17.67;12.27;;;;;;;-144.99;85.27;52403.25;5060636;28;20671;-61
2021/05/29 04:04:48;;;;;;;18.10;11.20;;;;;;;-144.99;85.22;52427.72;5060350;28;20256;-60
2021/05/29 04:07:17;;;;;;;14.03;10.73;;;;;;;-144.99;85.19;52407.31;5061369;28;20216;-61
2021/05/29 04:09:43;;;;;;;17.10;9.17;;;;;;;-144.99;85.31;52391.03;5060265;28;20239;-61
2021/05/29 04:12:10;;;;;;;15.17;8.83;;;;;;;-144.99;85.09;52419.56;5060976;28;20197;-60
2021/05/29 04:14:37;;;;;;;10.60;7.50;;;;;;;-144.99;84.99;52413.44;5063178;28;20201;-60
2021/05/29 04:17:05;;;;;;;9.23;7.37;;;;;;;-144.99;84.98;52399.19;5062259;28;20227;-61
2021/05/29 04:19:31;;;;;;;11.97;7.13;;;;;;;-144.99;84.85;52435.88;5059333;28;20275;-61
2021/05/29 04:22:01;;;;;;;13.73;8.23;;;;;;;-144.99;84.68;52472.56;5062332;28;20301;-59
2021/05/29 04:24:27;;;;;;;10.53;7.90;;;;;;;-144.99;84.70;52444.03;5061055;28;20309;-60
2021/05/29 04:26:55;;;;;;;10.13;8.40;;;;;;;-144.99;84.72;52382.88;5062011;28;20230;-60
2021/05/29 04:29:22;;;;;;;11.10;9.80;;;;;;;-144.99;84.75;52399.19;5064733;28;20589;-61
2021/05/29 04:31:51;;;;;;;14.93;7.93;;;;;;;-144.99;84.74;52407.31;5062467;28;20213;-61
2021/05/29 04:34:20;;;;;;;10.97;8.97;;;;;;;-144.99;84.65;52452.16;5061832;28;21734;-62
2021/05/29 04:36:46;;;;;;;13.53;9.53;;;;;;;-144.99;84.58;52448.09;5064377;28;20208;-61
2021/05/29 04:39:15;;;;;;;14.70;10.07;;;;;;;-144.99;84.48;52439.94;5060906;28;20261;-61
2021/05/29 04:41:44;;;;;;;13.83;8.47;;;;;;;-144.99;84.36;52409.38;5063377;28;20201;-62
2021/05/29 04:44:10;;;;;;;17.10;8.77;;;;;;;-144.99;84.35;52415.47;5057221;28;20606;-62
2021/05/29 04:46:39;;;;;;;11.50;8.17;;;;;;;-144.99;84.33;52399.19;5063948;28;20270;-63
2021/05/29 04:49:07;;;;;;;14.83;5.87;;;;;;;-144.99;84.26;52431.78;5065107;28;20292;-63
2021/05/29 04:51:33;;;;;;;9.60;6.40;;;;;;;-144.99;84.19;52378.78;5061259;28;20209;-64
2021/05/29 04:53:59;;;;;;;10.23;5.90;;;;;;;-144.99;84.19;52378.78;5063932;28;20205;-61
2021/05/29 04:56:30;;;;;;;7.73;4.93;;;;;;;-144.99;84.08;52448.09;5062089;28;20204;-63
2021/05/29 04:58:57;;;;;;;10.10;5.17;;;;;;;-144.99;83.97;52427.72;5060787;28;20251;-60
2021/05/29 05:01:30;;;;;;;11.13;6.27;;;;;;;-144.99;83.91;52444.03;5061060;28;20213;-59
2021/05/29 05:03:59;;;;;;;7.97;6.27;;;;;;;-144.99;83.93;52399.19;5061661;28;20208;-59
2021/05/29 05:06:29;;;;;;;8.50;6.50;;;;;;;-144.99;83.96;52395.09;5062232;28;20231;-60
2021/05/29 05:08:58;;;;;;;12.70;6.17;;;;;;;-144.99;83.94;52391.03;5057597;28;20220;-60
2021/05/29 05:11:24;;;;;;;12.90;5.93;;;;;;;-144.99;83.87;52403.25;5058296;28;20303;-58
2021/05/29 05:13:51;;;;;;;14.10;7.40;;;;;;;-144.99;84.03;52391.03;5067192;28;20556;-59
2021/05/29 05:16:21;;;;;;;8.63;6.23;;;;;;;-144.99;84.04;52435.88;5066959;28;20262;-59
2021/05/29 05:18:47;;;;;;;10.20;6.50;;;;;;;-144.99;83.87;52433.81;5067344;28;20223;-59
2021/05/29 05:21:13;;;;;;;8.77;6.60;;;;;;;-144.99;83.82;52427.72;5066589;28;20198;-61
2021/05/29 05:23:42;;;;;;;7.53;5.50;;;;;;;-144.99;83.78;52437.91;5063719;28;20287;-58
2021/05/29 05:26:09;;;;;;;10.73;7.83;;;;;;;-144.99;83.89;52431.78;5068197;28;20233;-58
2021/05/29 05:28:35;;;;;;;10.13;6.90;;;;;;;-144.99;83.83;52415.47;5066843;28;20229;-60
2021/05/29 05:31:06;;;;;;;9.73;6.47;;;;;;;-144.99;83.76;52427.72;5063733;28;20211;-61
2021/05/29 05:33:39;;;;;;;8.40;6.43;;;;;;;-144.99;83.66;52397.13;5067915;28;20623;-61
2021/05/29 05:36:07;;;;;;;11.50;6.13;;;;;;;-144.99;83.40;52431.78;5063847;28;20201;-62
2021/05/29 05:38:34;;;;;;;10.63;6.30;;;;;;;-144.99;83.14;52431.78;5068379;28;20224;-62
2021/05/29 05:41:01;;;;;;;7.97;5.30;;;;;;;-144.99;83.02;52423.63;5066546;28;20208;-61
2021/05/29 05:43:30;;;;;;;8.70;7.07;;;;;;;-144.99;83.09;52407.31;5065009;28;20205;-61
2021/05/29 05:46:01;;;;;;;8.57;7.77;;;;;;;-144.99;82.98;52439.94;5065364;28;20227;-62
2021/05/29 05:48:27;;;;;;;13.27;9.30;;;;;;;-144.99;83.02;52415.47;5065535;28;20328;-62
2021/05/29 05:50:55;;;;;;;16.10;12.13;;;;;;;-144.99;83.07;52419.56;5065633;28;20207;-62
2021/05/29 05:53:22;;;;;;;16.30;12.07;;;;;;;-144.99;82.92;52391.03;5065572;28;20201;-62
2021/05/29 05:55:55;;;;;;;16.73;11.00;;;;;;;-144.99;82.92;52427.72;5067322;28;20204;-61
2021/05/29 05:58:22;;;;;;;11.00;8.67;;;;;;;-144.99;82.78;52399.19;5063670;28;20539;-63
2021/05/29 06:00:48;;;;;;;17.27;11.37;;;;;;;-144.99;82.60;52407.31;5065643;28;20250;-61
2021/05/29 06:03:17;;;;;;;11.50;10.20;;;;;;;-144.99;82.50;52397.13;5066157;28;20594;-61
2021/05/29 06:05:43;;;;;;;12.37;9.53;;;;;;;-144.99;82.49;52399.19;5061975;28;20252;-62
2021/05/29 06:08:09;;;;;;;11.97;9.53;;;;;;;-144.99;82.55;52395.09;5065152;28;20443;-60
2021/05/29 06:10:35;;;;;;;14.50;9.33;;;;;;;-144.99;82.40;52399.19;5066311;28;20241;-60
2021/05/29 06:13:06;;;;;;;11.80;9.87;;;;;;;-144.99;82.27;52431.78;5063570;28;20204;-61
2021/05/29 06:21:17;;;;;;;14.40;11.30;;;;;;;-144.99;81.27;52415.47;5038277;28;20202;-61
2021/05/29 06:23:43;;;;;;;14.43;10.47;;;;;;;-144.99;81.03;52409.38;5062398;28;20215;-60
2021/05/29 06:26:09;;;;;;;13.43;10.53;;;;;;;-144.99;80.91;52415.47;5071055;28;20845;-63
2021/05/29 06:28:41;;;;;;;16.53;11.47;;;;;;;-144.99;80.77;52395.09;5063252;28;20312;-62
2021/05/29 06:31:11;;;;;;;12.87;10.73;;;;;;;-144.99;80.71;52391.03;5071094;28;20274;-62
2021/05/29 06:33:37;;;;;;;13.40;11.03;;;;;;;-144.99;80.53;52407.31;5067232;28;20205;-63
2021/05/29 06:36:04;;;;;;;14.40;11.80;;;;;;;-144.99;80.34;52391.03;5068330;28;20606;-62
2021/05/29 06:38:30;;;;;;;15.10;11.10;;;;;;;-144.99;79.97;52411.41;5062700;28;20311;-63
2021/05/29 06:40:56;;;;;;;13.17;8.97;;;;;;;-144.99;79.72;52399.19;5060686;28;20658;-63
2021/05/29 06:43:22;;;;;;;11.33;8.30;;;;;;;-144.99;79.30;52395.09;5056301;28;20227;-63
2021/05/29 06:45:52;;;;;;;15.43;8.90;;;;;;;-144.99;79.30;52374.72;5060141;28;20235;-63
2021/05/29 06:48:20;;;;;;;14.07;9.57;;;;;;;-144.99;79.20;52382.88;5062232;28;20227;-61
2021/05/29 06:50:50;;;;;;;12.03;8.10;;;;;;;-144.99;78.95;52346.19;5061268;28;20303;-63
2021/05/29 06:53:21;;;;;;;14.10;8.07;;;;;;;-144.99;78.96;52388.97;5055246;28;20557;-62
2021/05/29 06:58:39;;;;;;;14.87;9.90;;;;;;;-144.99;78.32;52378.78;5057794;28;20771;-63
2021/05/29 07:01:06;;;;;;;12.17;8.97;;;;;;;-144.99;78.20;52388.97;5060790;28;20207;-63
2021/05/29 07:03:36;;;;;;;18.60;9.13;;;;;;;-144.99;78.76;52401.22;5054453;28;20207;-60
2021/05/29 07:06:02;;;;;;;9.13;7.93;;;;;;;-144.99;76.87;52419.56;5061546;28;20881;-60
2021/05/29 07:08:31;;;;;;;9.47;8.37;;;;;;;-144.99;78.24;52374.72;5062942;28;20589;-74
2021/05/29 07:11:00;;;;;;;11.40;8.20;;;;;;;-144.99;78.24;52415.47;5061252;28;20727;-71
2021/05/29 07:13:29;;;;;;;10.40;7.87;;;;;;;-144.99;77.88;52350.25;5060171;28;20705;-75
2021/05/29 07:15:58;;;;;;;11.43;6.60;;;;;;;-144.99;77.32;52360.44;5065581;28;20205;-70
2021/05/29 07:18:30;;;;;;;8.93;7.37;;;;;;;-144.99;76.35;52397.13;5069501;28;20220;-74
2021/05/29 07:21:01;;;;;;;14.57;8.80;;;;;;;-144.99;74.92;52378.78;5072004;28;20204;-71
2021/05/29 07:23:31;;;;;;;11.70;8.83;;;;;;;-144.99;75.12;52374.72;5066013;28;20242;-73
2021/05/29 07:26:04;;;;;;;9.97;8.70;;;;;;;-144.99;73.94;52370.63;5068863;28;20308;-70
2021/05/29 07:28:30;;;;;;;10.30;9.10;;;;;;;-144.99;73.69;52350.25;5063455;28;20225;-74
2021/05/29 07:31:00;;;;;;;13.37;10.57;;;;;;;-144.99;73.27;52386.94;5063927;28;20209;-74
2021/05/29 07:33:26;;;;;;;11.83;10.63;;;;;;;-144.99;72.94;52374.72;5053376;28;20205;-66
2021/05/29 07:35:59;;;;;;;12.60;10.30;;;;;;;-144.99;72.60;52358.41;5061696;28;20209;-72
2021/05/29 07:38:29;;;;;;;16.20;14.63;;;;;;;-144.99;71.89;52391.03;5054388;28;20323;-70
2021/05/29 07:40:55;;;;;;;13.33;11.73;;;;;;;-144.99;72.37;52352.28;5053575;28;20541;-68
2021/05/29 07:43:24;;;;;;;11.03;9.97;;;;;;;-144.99;72.38;52386.94;5059942;28;20227;-67
2021/05/29 07:45:54;;;;;;;15.43;12.87;;;;;;;-144.99;72.38;52366.56;5067821;28;20314;-66
2021/05/29 07:48:23;;;;;;;12.60;11.33;;;;;;;-144.99;72.49;52370.63;5056678;28;20230;-67
2021/05/29 07:50:58;;;;;;;16.17;11.03;;;;;;;-144.99;72.65;52386.94;5057038;28;20209;-67
2021/05/29 07:53:34;;;;;;;11.67;10.50;;;;;;;-144.99;72.53;52374.72;5060011;28;20204;-66
2021/05/29 07:56:05;;;;;;;13.03;10.53;;;;;;;-144.99;72.47;52340.06;5058413;28;20200;-67
2021/05/29 07:58:34;;;;;;;12.23;10.40;;;;;;;-144.99;72.41;52346.19;5060844;28;20304;-68
2021/05/29 08:01:01;;;;;;;13.23;11.37;;;;;;;-144.99;72.70;52399.19;5057144;28;20213;-68
2021/05/29 08:03:29;;;;;;;14.37;11.47;;;;;;;-144.99;72.38;52362.50;5057350;28;20216;-65
2021/05/29 08:06:03;;;;;;;9.20;8.23;;;;;;;-144.99;72.15;52354.34;5058564;28;20308;-66
2021/05/29 08:08:33;;;;;;;18.40;14.07;;;;;;;-144.99;72.33;52358.41;5060302;28;20604;-66
2021/05/29 08:11:03;;;;;;;15.43;10.87;;;;;;;-144.99;71.14;52378.78;5065574;28;20215;-66
2021/05/29 08:13:33;;;;;;;10.47;8.57;;;;;;;-144.99;70.76;52333.94;5065487;28;20720;-67
2021/05/29 08:15:59;;;;;;;7.97;6.77;;;;;;;-144.99;70.58;52370.63;5066588;28;20399;-66
2021/05/29 08:18:25;;;;;;;10.30;6.37;;;;;;;-144.99;70.55;52360.44;5065628;28;20220;-65
2021/05/29 08:20:55;;;;;;;12.13;9.20;;;;;;;-144.99;70.63;52407.31;5065023;28;20204;-67
2021/05/29 08:23:23;;;;;;;9.00;7.53;;;;;;;-144.99;70.65;52372.69;5065364;28;20569;-66
2021/05/29 08:25:51;;;;;;;9.93;7.47;;;;;;;-144.99;69.78;52346.19;5064503;28;20221;-66
2021/05/29 08:28:17;;;;;;;10.53;9.30;;;;;;;-144.99;69.94;52374.72;5065609;28;20239;-66
2021/05/29 08:30:43;;;;;;;10.20;8.40;;;;;;;-144.99;69.16;52407.31;5064417;28;20299;-66
2021/05/29 08:33:09;;;;;;;9.03;7.97;;;;;;;-144.99;68.29;52362.50;5065885;28;20201;-70
2021/05/29 08:35:38;;;;;;;12.50;9.37;;;;;;;-144.99;69.07;52366.56;5065830;28;20204;-66
2021/05/29 08:38:07;;;;;;;11.83;8.87;;;;;;;-144.99;69.21;52384.91;5061517;28;20220;-68
2021/05/29 08:40:37;;;;;;;14.13;10.43;;;;;;;-144.99;69.21;52342.09;5066450;28;20273;-68
2021/05/29 08:43:11;;;;;;;13.03;10.40;;;;;;;-144.99;68.78;52352.28;5064521;28;20203;-65
2021/05/29 08:45:37;;;;;;;12.33;8.67;;;;;;;-144.99;68.19;52382.88;5065970;28;20227;-66
2021/05/29 08:48:04;;;;;;;12.90;7.40;;;;;;;-144.99;69.21;52378.78;5065342;28;20718;-67
2021/05/29 08:50:31;;;;;;;12.23;7.73;;;;;;;-144.99;69.05;52366.56;5065335;28;20674;-65
2021/05/29 08:52:57;;;;;;;7.20;6.47;;;;;;;-144.99;69.14;52350.25;5065968;28;20298;-66
2021/05/29 08:55:23;;;;;;;8.93;6.47;;;;;;;-144.99;69.11;52342.09;5065715;28;20355;-66
2021/05/29 08:57:50;;;;;;;8.60;5.77;;;;;;;-144.99;68.65;52354.34;5066301;28;20293;-66
2021/05/29 09:00:24;;;;;;;7.67;5.97;;;;;;;-144.99;68.58;52370.63;5068410;28;20232;-68
2021/05/29 09:03:02;;;;;;;8.57;6.17;;;;;;;-144.99;68.92;52370.63;5067601;28;20291;-67
2021/05/29 09:05:51;;;;;;;9.53;7.73;;;;;;;-144.99;68.78;52329.88;5064590;28;20710;-67
2021/05/29 09:08:21;;;;;;;7.20;5.23;;;;;;;-144.99;68.48;52370.63;5062290;28;20261;-67
2021/05/29 09:10:50;;;;;;;8.47;4.80;;;;;;;-144.99;67.93;52372.69;5066322;28;20653;-66
2021/05/29 09:13:22;;;;;;;7.70;4.83;;;;;;;-144.99;68.34;52384.91;5063967;28;20241;-66
2021/05/29 09:16:01;;;;;;;6.20;3.80;;;;;;;-144.99;67.77;52333.94;5069761;28;20228;-68
2021/05/29 09:18:36;;;;;;;7.53;4.43;;;;;;;-144.99;67.71;52340.06;5069030;28;20565;-67
2021/05/29 09:21:27;;;;;;;8.37;5.50;;;;;;;-144.99;67.55;52358.41;5070182;28;20690;-66
2021/05/29 09:23:59;;;;;;;9.03;5.33;;;;;;;-144.99;68.07;52386.94;5075327;28;20274;-67
2021/05/29 09:26:48;;;;;;;6.63;5.20;;;;;;;-144.99;67.61;52407.31;5075661;28;20662;-66
2021/05/29 09:29:20;;;;;;;7.17;4.83;;;;;;;-144.99;67.67;52399.19;5061902;28;20642;-66
2021/05/29 09:31:56;;;;;;;12.43;6.67;;;;;;;-144.99;67.54;52338.03;5069879;28;20207;-67
2021/05/29 09:34:35;;;;;;;9.43;5.23;;;;;;;-144.99;67.73;52391.03;5062380;28;20367;-68
2021/05/29 09:37:06;;;;;;;11.03;6.47;;;;;;;-144.99;67.15;52358.41;5067241;28;20225;-68
2021/05/29 09:39:36;;;;;;;8.57;7.43;;;;;;;-144.99;67.23;52382.88;5069663;28;20300;-66
2021/05/29 09:42:07;;;;;;;10.83;9.13;;;;;;;-144.99;67.36;52366.56;5069538;28;20210;-68
2021/05/29 09:44:39;;;;;;;10.43;8.13;;;;;;;-144.99;67.08;52346.19;5068542;28;20209;-67
2021/05/29 09:47:08;;;;;;;10.47;9.47;;;;;;;-144.99;67.67;52391.03;5068787;28;20232;-67
2021/05/29 09:49:58;;;;;;;23.60;18.43;;;;;;;-144.99;67.98;52362.50;5067957;28;20214;-66
2021/05/29 09:52:32;;;;;;;13.73;11.90;;;;;;;-144.99;68.37;52407.31;5067430;28;20209;-66
2021/05/29 09:55:04;;;;;;;16.53;12.80;;;;;;;-144.99;68.93;52378.78;5066894;28;20312;-66
2021/05/29 09:57:31;;;;;;;12.73;11.43;;;;;;;-144.99;69.48;52382.88;5064481;28;20231;-68
2021/05/29 09:59:59;;;;;;;14.57;11.13;;;;;;;-144.99;69.58;52366.56;5070559;28;20723;-67
2021/05/29 10:02:27;;;;;;;12.60;10.83;;;;;;;-144.99;69.71;52362.50;5065931;28;20577;-68
2021/05/29 10:04:57;;;;;;;15.33;11.60;;;;;;;-144.99;69.86;52386.94;5071812;28;20575;-69
2021/05/29 10:07:24;;;;;;;12.63;11.37;;;;;;;-144.99;69.46;52411.41;5069635;28;20713;-67
2021/05/29 10:09:51;;;;;;;12.33;9.90;;;;;;;-144.99;69.35;52403.25;5067627;28;20317;-70
2021/05/29 10:12:20;;;;;;;14.57;10.10;;;;;;;-144.99;69.27;52368.59;5064039;28;20287;-68
2021/05/29 10:14:49;;;;;;;11.50;9.33;;;;;;;-144.99;69.33;52366.56;5070978;28;20742;-66
2021/05/29 10:17:18;;;;;;;9.77;8.63;;;;;;;-144.99;69.39;52415.47;5071040;28;20228;-67
2021/05/29 10:19:45;;;;;;;11.10;9.90;;;;;;;-144.99;69.76;52350.25;5071233;28;20205;-68
2021/05/29 10:22:13;;;;;;;14.33;9.33;;;;;;;-144.99;69.52;52350.25;5062931;28;20198;-67
2021/05/29 10:24:40;;;;;;;14.03;10.03;;;;;;;-144.99;69.30;52374.72;5065098;28;20201;-69
2021/05/29 10:27:11;;;;;;;14.00;10.27;;;;;;;-144.99;69.39;52380.84;5065474;28;20225;-67
2021/05/29 10:29:39;;;;;;;8.23;7.17;;;;;;;-144.99;69.27;52344.16;5071446;28;20204;-67
2021/05/29 10:32:10;;;;;;;9.27;6.57;;;;;;;-144.99;68.79;52409.38;5071585;28;20602;-68
2021/05/29 10:35:03;;;;;;;8.13;6.63;;;;;;;-144.99;68.59;52346.19;5065640;28;20619;-67
2021/05/29 10:37:48;;;;;;;10.60;7.93;;;;;;;-144.99;68.34;52354.34;5070812;28;20282;-68
2021/05/29 10:40:23;;;;;;;9.03;8.07;;;;;;;-144.99;68.59;52366.56;5067507;28;20213;-68
2021/05/29 10:43:07;;;;;;;9.67;8.33;;;;;;;-144.99;68.91;52380.84;5071707;28;20216;-67
2021/05/29 10:45:34;;;;;;;15.50;12.20;;;;;;;-144.99;69.05;52378.78;5072733;28;20667;-68
2021/05/29 10:48:15;;;;;;;11.03;8.07;;;;;;;-144.99;69.02;52391.03;5071894;28;20278;-68
2021/05/29 10:50:59;;;;;;;9.10;7.50;;;;;;;-144.99;68.51;52346.19;5072466;28;20213;-68
2021/05/29 10:53:50;;;;;;;10.17;8.67;;;;;;;-144.99;67.25;52325.81;5071994;28;20304;-68
2021/05/29 10:56:40;;;;;;;9.43;7.23;;;;;;;-144.99;67.38;52336.00;5066999;28;20201;-66
2021/05/29 10:59:09;;;;;;;9.80;8.80;;;;;;;-144.99;67.45;52342.09;5071457;28;20263;-68
2021/05/29 11:02:11;;;;;;;12.10;9.00;;;;;;;-144.99;66.88;52350.25;5072395;28;20224;-67
2021/05/29 11:04:38;;;;;;;15.70;9.43;;;;;;;-144.99;67.08;52358.41;5072250;28;20212;-69
2021/05/29 11:07:27;;;;;;;14.37;11.10;;;;;;;-144.99;67.73;52358.41;5071270;28;20298;-68
2021/05/29 11:10:03;;;;;;;11.80;10.47;;;;;;;-144.99;67.72;52386.94;5059306;28;20223;-67
2021/05/29 11:13:02;;;;;;;13.50;11.00;;;;;;;-144.99;68.00;52358.41;5065676;28;20216;-70
2021/05/29 11:15:58;;;;;;;12.23;11.07;;;;;;;-144.99;68.03;52325.81;5072402;28;20703;-66
2021/05/29 11:18:24;;;;;;;16.13;10.10;;;;;;;-144.99;67.67;52374.72;5071762;28;20272;-68
2021/05/29 11:21:08;;;;;;;12.80;11.13;;;;;;;-144.99;67.25;52360.44;5072538;28;20284;-68
2021/05/29 11:23:38;;;;;;;10.23;9.13;;;;;;;-144.99;66.59;52342.09;5059363;28;20201;-68
2021/05/29 11:26:07;;;;;;;14.73;13.10;;;;;;;-144.99;65.48;52362.50;5071618;28;20352;-68